Time;durP1;ratioP1;P1;durP2;ratioP2;P2;SDS_P1;SDS_P2;PMS_P1;PMS_P2;Temp;Humidity;BMP_temperature;BMP_pressure;BME280_temperature;BME280_humidity;BME280_pressure;Samples;Min_cycle;Max_cycle;Signal;HPM_P1;HPM_P2
2021/10/31 00:01:50;;;;;;;13.10;10.33;;;11.90;70.00;;;;;;5111500;28;20208;-67
2021/10/31 00:04:19;;;;;;;14.43;10.30;;;11.90;70.20;;;;;;5112324;28;20219;-67
2021/10/31 00:06:45;;;;;;;20.83;10.90;;;11.80;70.20;;;;;;5102939;28;20515;-68
2021/10/31 00:09:12;;;;;;;14.87;10.73;;;11.90;70.40;;;;;;5104140;28;20290;-68
2021/10/31 00:11:39;;;;;;;20.83;10.83;;;11.80;70.40;;;;;;5111652;28;20311;-67
2021/10/31 00:14:06;;;;;;;15.80;10.83;;;11.80;71.30;;;;;;5120788;27;20246;-68
2021/10/31 00:16:34;;;;;;;17.03;11.33;;;11.80;70.60;;;;;;5114361;28;20223;-69
2021/10/31 00:19:01;;;;;;;15.93;10.50;;;11.80;70.80;;;;;;5112756;28;20200;-67
2021/10/31 00:21:29;;;;;;;15.57;10.87;;;11.70;70.90;;;;;;5112420;28;20296;-67
2021/10/31 00:23:56;;;;;;;20.43;10.90;;;11.70;71.10;;;;;;5113195;28;20211;-67
2021/10/31 00:26:23;;;;;;;17.50;10.60;;;11.70;71.30;;;;;;5112989;28;20203;-67
2021/10/31 00:28:50;;;;;;;17.53;11.00;;;11.60;71.20;;;;;;5112303;28;20202;-68
2021/10/31 00:31:17;;;;;;;17.53;10.30;;;11.70;71.40;;;;;;5111622;28;20302;-67
2021/10/31 00:33:44;;;;;;;18.23;11.47;;;11.60;71.50;;;;;;5111469;28;20210;-67
2021/10/31 00:36:11;;;;;;;14.47;10.73;;;11.60;71.70;;;;;;5111750;28;20230;-67
2021/10/31 00:38:39;;;;;;;16.00;10.83;;;11.60;71.90;;;;;;5109312;28;20204;-67
2021/10/31 00:41:06;;;;;;;16.30;10.97;;;11.50;71.90;;;;;;5112093;28;20208;-67
2021/10/31 00:43:33;;;;;;;16.03;11.47;;;11.50;72.80;;;;;;5111488;28;20546;-67
2021/10/31 00:46:00;;;;;;;17.83;10.77;;;11.50;72.10;;;;;;5108489;28;20219;-67
2021/10/31 00:48:27;;;;;;;17.77;11.50;;;11.50;72.20;;;;;;5108527;28;20553;-68
2021/10/31 00:50:54;;;;;;;18.07;11.50;;;11.50;72.30;;;;;;5111582;28;20224;-67
2021/10/31 00:53:21;;;;;;;16.47;10.50;;;11.40;72.40;;;;;;5111824;28;20566;-68
2021/10/31 00:55:50;;;;;;;17.87;11.40;;;11.40;72.50;;;;;;5111206;28;20224;-67
2021/10/31 00:58:18;;;;;;;20.13;10.90;;;11.40;72.80;;;;;;5106707;28;20724;-67
2021/10/31 01:00:47;;;;;;;18.43;10.63;;;11.40;72.80;;;;;;5123496;28;20234;-67
2021/10/31 01:03:14;;;;;;;16.10;11.23;;;11.30;72.80;;;;;;5128017;28;20208;-68
2021/10/31 01:05:46;;;;;;;18.87;11.73;;;11.30;72.90;;;;;;5110462;28;20196;-67
2021/10/31 01:08:30;;;;;;;15.27;10.57;;;11.40;73.20;;;;;;5103079;28;20592;-68
2021/10/31 01:11:17;;;;;;;16.13;11.20;;;11.30;73.20;;;;;;5113466;28;20560;-68
2021/10/31 01:14:08;;;;;;;16.40;11.07;;;11.30;73.40;;;;;;5098501;28;20229;-67
2021/10/31 01:16:53;;;;;;;17.83;11.03;;;11.20;73.40;;;;;;5120668;27;20219;-68
2021/10/31 01:19:39;;;;;;;19.67;11.57;;;11.10;73.50;;;;;;5115116;28;20219;-69
2021/10/31 01:22:14;;;;;;;17.03;10.83;;;11.20;73.80;;;;;;5097765;28;20203;-68
2021/10/31 01:24:58;;;;;;;15.73;10.87;;;11.10;73.80;;;;;;5115947;28;20204;-68
2021/10/31 01:27:37;;;;;;;16.03;10.90;;;11.10;73.90;;;;;;5123674;27;20499;-68
2021/10/31 01:30:13;;;;;;;17.77;11.10;;;11.10;73.90;;;;;;5118653;27;20245;-69
2021/10/31 01:32:53;;;;;;;18.30;10.70;;;11.10;74.00;;;;;;5103835;28;20698;-68
2021/10/31 01:35:43;;;;;;;16.47;10.57;;;11.10;74.10;;;;;;5120050;27;20212;-68
2021/10/31 01:38:20;;;;;;;17.33;10.53;;;11.10;74.10;;;;;;5109495;28;20610;-68
2021/10/31 01:40:55;;;;;;;16.00;10.83;;;11.10;74.00;;;;;;5121891;27;20202;-67
2021/10/31 01:43:30;;;;;;;16.90;10.57;;;11.00;73.90;;;;;;5114582;28;20206;-68
2021/10/31 01:46:07;;;;;;;17.80;10.37;;;11.00;73.90;;;;;;5107365;27;20567;-67
2021/10/31 01:48:43;;;;;;;15.07;10.50;;;11.10;74.10;;;;;;5131379;27;20230;-68
2021/10/31 01:51:18;;;;;;;19.47;10.27;;;11.10;74.20;;;;;;5112118;28;20548;-67
2021/10/31 01:53:52;;;;;;;16.00;10.70;;;11.00;74.10;;;;;;5115132;28;20207;-66
2021/10/31 01:56:22;;;;;;;18.03;11.03;;;11.00;74.00;;;;;;5114343;28;20238;-67
2021/10/31 01:58:55;;;;;;;17.77;10.17;;;11.00;74.10;;;;;;5114317;28;20227;-67
2021/10/31 02:01:25;;;;;;;16.67;10.20;;;11.00;74.10;;;;;;5113454;28;20226;-67
2021/10/31 02:03:53;;;;;;;14.90;9.93;;;11.00;74.20;;;;;;5104570;28;20205;-67
2021/10/31 02:06:23;;;;;;;14.50;10.50;;;11.00;74.30;;;;;;5110828;27;20232;-67
2021/10/31 02:08:51;;;;;;;21.40;11.23;;;11.00;74.40;;;;;;5114400;28;20688;-67
2021/10/31 02:11:20;;;;;;;14.33;9.83;;;11.00;74.50;;;;;;5109231;28;20230;-68
2021/10/31 02:13:52;;;;;;;18.77;11.00;;;10.90;74.40;;;;;;5107951;28;20545;-67
2021/10/31 02:16:22;;;;;;;19.80;10.57;;;10.90;74.30;;;;;;5120776;27;20731;-67
2021/10/31 02:18:51;;;;;;;18.70;11.00;;;11.00;74.50;;;;;;5110544;28;20207;-67
2021/10/31 02:21:21;;;;;;;19.30;10.30;;;10.90;74.50;;;;;;5115120;28;20239;-67
2021/10/31 02:23:51;;;;;;;16.37;10.57;;;10.90;74.60;;;;;;5126098;27;20630;-66
2021/10/31 02:26:18;;;;;;;16.27;9.67;;;10.90;74.70;;;;;;5113500;28;20203;-67
2021/10/31 02:28:55;;;;;;;16.07;10.90;;;10.90;75.00;;;;;;5113597;28;20328;-67
2021/10/31 02:31:22;;;;;;;15.80;10.40;;;10.80;75.00;;;;;;5105862;28;20554;-67
2021/10/31 02:33:49;;;;;;;14.47;9.63;;;10.80;75.20;;;;;;5111707;28;20204;-67
2021/10/31 02:36:16;;;;;;;14.77;10.17;;;10.80;75.30;;;;;;5106881;28;20225;-67
2021/10/31 02:38:44;;;;;;;17.10;10.30;;;10.70;75.40;;;;;;5110823;28;20518;-67
2021/10/31 02:41:12;;;;;;;17.00;10.23;;;10.70;75.40;;;;;;5114127;28;20714;-68
2021/10/31 02:43:39;;;;;;;16.33;9.77;;;10.70;75.40;;;;;;5128611;27;20287;-67
2021/10/31 02:46:06;;;;;;;15.77;10.03;;;10.70;75.40;;;;;;5110243;28;20203;-67
2021/10/31 02:48:34;;;;;;;17.40;10.87;;;10.80;75.50;;;;;;5113175;27;20204;-67
2021/10/31 02:51:08;;;;;;;14.67;10.13;;;10.70;75.40;;;;;;5111236;28;20299;-66
2021/10/31 02:53:40;;;;;;;13.93;10.17;;;10.70;75.40;;;;;;5092931;28;20214;-67
2021/10/31 02:56:15;;;;;;;15.40;10.03;;;10.70;75.40;;;;;;5110282;27;20322;-67
2021/10/31 02:58:47;;;;;;;18.57;10.17;;;10.70;76.70;;;;;;5124474;27;20296;-66
2021/10/31 03:01:16;;;;;;;16.50;11.03;;;10.60;76.20;;;;;;5113584;28;20207;-67
2021/10/31 03:03:44;;;;;;;15.10;10.97;;;10.60;76.30;;;;;;5113690;28;20210;-66
2021/10/31 03:06:12;;;;;;;16.17;10.83;;;10.60;76.60;;;;;;5104821;28;20200;-66
2021/10/31 03:08:40;;;;;;;16.43;10.53;;;10.50;76.70;;;;;;5110737;27;20671;-66
2021/10/31 03:11:09;;;;;;;18.77;10.33;;;10.50;76.90;;;;;;5114221;27;20272;-67
2021/10/31 03:13:38;;;;;;;17.73;10.27;;;10.50;77.00;;;;;;5113686;28;20208;-67
2021/10/31 03:16:05;;;;;;;14.53;10.00;;;10.50;77.20;;;;;;5113023;28;20196;-67
2021/10/31 03:18:33;;;;;;;15.83;10.27;;;10.50;77.20;;;;;;5116898;27;20240;-68
2021/10/31 03:20:59;;;;;;;13.40;9.67;;;10.50;77.20;;;;;;5127571;27;20207;-68
2021/10/31 03:23:27;;;;;;;14.77;10.50;;;10.50;77.20;;;;;;5116778;27;20290;-68
2021/10/31 03:25:54;;;;;;;14.57;9.47;;;10.50;77.20;;;;;;5112416;28;20212;-67
2021/10/31 03:28:21;;;;;;;14.87;9.80;;;10.50;77.20;;;;;;5112882;28;20666;-68
2021/10/31 03:30:49;;;;;;;16.70;10.67;;;10.50;77.40;;;;;;5113585;28;20200;-67
2021/10/31 03:33:16;;;;;;;14.53;9.90;;;10.40;77.30;;;;;;5112983;28;20294;-67
2021/10/31 03:35:44;;;;;;;13.83;10.13;;;10.40;77.40;;;;;;5112581;28;20200;-67
2021/10/31 03:38:11;;;;;;;15.90;10.53;;;10.40;77.40;;;;;;5120024;27;20235;-67
2021/10/31 03:40:37;;;;;;;18.33;10.60;;;10.40;77.60;;;;;;5114227;27;20214;-67
2021/10/31 03:43:04;;;;;;;16.73;10.50;;;10.40;77.70;;;;;;5124063;27;20226;-67
2021/10/31 03:45:31;;;;;;;17.87;10.67;;;10.40;77.60;;;;;;5116499;27;20196;-67
2021/10/31 03:48:02;;;;;;;13.50;10.03;;;10.40;77.60;;;;;;5115162;27;20202;-67
2021/10/31 03:50:28;;;;;;;16.50;9.80;;;10.40;77.80;;;;;;5121937;27;20634;-67
2021/10/31 03:52:55;;;;;;;16.13;9.47;;;10.40;77.90;;;;;;5126776;27;20263;-67
2021/10/31 03:55:23;;;;;;;17.73;10.07;;;10.40;77.90;;;;;;5112791;28;20215;-67
2021/10/31 03:57:50;;;;;;;15.80;10.30;;;10.30;77.90;;;;;;5112158;28;20257;-67
2021/10/31 04:00:18;;;;;;;15.07;9.93;;;10.40;77.90;;;;;;5111674;28;20227;-67
2021/10/31 04:02:45;;;;;;;13.97;9.80;;;10.40;78.10;;;;;;5111869;28;20200;-67
2021/10/31 04:05:14;;;;;;;13.33;9.57;;;10.40;78.50;;;;;;5112147;28;20578;-66
2021/10/31 04:07:42;;;;;;;17.93;10.60;;;10.40;78.10;;;;;;5112217;28;20289;-68
2021/10/31 04:10:10;;;;;;;15.67;10.70;;;10.40;78.10;;;;;;5125098;27;20203;-67
2021/10/31 04:12:37;;;;;;;17.47;10.67;;;10.40;78.10;;;;;;5121197;27;20203;-66
2021/10/31 04:15:04;;;;;;;15.50;9.77;;;10.40;78.30;;;;;;5112635;28;20200;-68
2021/10/31 04:17:31;;;;;;;15.30;10.07;;;10.30;78.30;;;;;;5119260;27;20655;-67
2021/10/31 04:19:58;;;;;;;21.60;11.07;;;10.30;78.40;;;;;;5122251;28;20212;-68
2021/10/31 04:22:26;;;;;;;16.03;10.70;;;10.30;78.40;;;;;;5103741;28;20564;-68
2021/10/31 04:24:53;;;;;;;15.37;10.30;;;10.30;78.60;;;;;;5121641;28;20314;-67
2021/10/31 04:27:20;;;;;;;18.17;11.23;;;10.20;78.90;;;;;;5112264;28;20273;-67
2021/10/31 04:29:47;;;;;;;15.93;10.63;;;10.20;79.00;;;;;;5112838;28;20200;-67
2021/10/31 04:32:14;;;;;;;14.80;10.57;;;10.20;79.00;;;;;;5111754;28;20196;-67
2021/10/31 04:34:40;;;;;;;16.40;10.53;;;10.20;79.10;;;;;;5112307;28;20660;-67
2021/10/31 04:37:07;;;;;;;14.97;10.23;;;10.20;79.10;;;;;;5107718;28;20691;-67
2021/10/31 04:39:36;;;;;;;19.27;10.50;;;10.20;79.20;;;;;;5110944;28;20215;-67
2021/10/31 04:42:04;;;;;;;15.30;10.50;;;10.20;79.40;;;;;;5113203;28;20227;-68
2021/10/31 04:44:31;;;;;;;15.80;11.00;;;10.20;79.40;;;;;;5124126;28;20490;-68
2021/10/31 04:46:59;;;;;;;18.27;10.00;;;10.10;79.60;;;;;;5111863;28;20207;-67
2021/10/31 04:49:26;;;;;;;14.70;10.43;;;10.10;79.70;;;;;;5105881;28;20204;-68
2021/10/31 04:51:53;;;;;;;16.90;10.30;;;10.10;79.80;;;;;;5106523;28;20650;-67
2021/10/31 04:54:20;;;;;;;18.00;11.00;;;10.10;79.90;;;;;;5111056;28;20207;-67
2021/10/31 04:56:48;;;;;;;14.30;10.50;;;10.00;79.80;;;;;;5111081;28;20228;-67
2021/10/31 04:59:15;;;;;;;14.73;9.90;;;10.10;79.90;;;;;;5115172;28;20663;-66
2021/10/31 05:01:42;;;;;;;13.77;10.23;;;10.10;80.00;;;;;;5120658;27;20211;-67
2021/10/31 05:04:10;;;;;;;18.77;10.00;;;10.00;80.00;;;;;;5107255;28;20546;-67
2021/10/31 05:06:37;;;;;;;17.00;9.77;;;10.10;80.10;;;;;;5115783;28;20204;-67
2021/10/31 05:09:03;;;;;;;15.90;9.90;;;10.10;80.10;;;;;;5124294;27;20399;-67
2021/10/31 05:11:30;;;;;;;16.63;10.20;;;10.10;80.10;;;;;;5115140;28;20211;-68
2021/10/31 05:13:58;;;;;;;16.77;9.97;;;10.10;80.00;;;;;;5115553;28;20306;-68
2021/10/31 05:16:25;;;;;;;13.57;10.00;;;10.10;80.00;;;;;;5114902;28;20200;-67
2021/10/31 05:18:52;;;;;;;14.20;10.10;;;10.10;79.90;;;;;;5111523;28;20228;-67
2021/10/31 05:21:19;;;;;;;17.60;10.17;;;10.10;79.90;;;;;;5128934;27;20210;-68
2021/10/31 05:23:46;;;;;;;14.70;9.20;;;10.10;79.90;;;;;;5115940;27;20533;-68
2021/10/31 05:26:13;;;;;;;12.80;9.37;;;10.10;79.90;;;;;;5114204;28;20675;-68
2021/10/31 05:28:40;;;;;;;18.13;10.30;;;10.10;79.90;;;;;;5115079;28;20288;-67
2021/10/31 05:31:09;;;;;;;14.23;9.93;;;10.10;79.90;;;;;;5115042;28;20200;-67
2021/10/31 05:33:36;;;;;;;16.77;9.83;;;10.20;80.80;;;;;;5114766;28;20585;-68
2021/10/31 05:36:04;;;;;;;15.20;9.83;;;10.20;80.00;;;;;;5123602;27;20294;-68
2021/10/31 05:38:31;;;;;;;12.23;9.27;;;10.20;81.00;;;;;;5110286;28;20284;-67
2021/10/31 05:40:58;;;;;;;13.43;9.57;;;10.10;79.90;;;;;;5124761;27;20242;-68
2021/10/31 05:43:25;;;;;;;13.43;9.67;;;10.20;79.90;;;;;;5121741;27;20330;-69
2021/10/31 05:45:52;;;;;;;13.70;9.20;;;10.20;80.00;;;;;;5115110;28;20216;-68
2021/10/31 05:48:20;;;;;;;17.97;9.37;;;10.20;80.00;;;;;;5119264;27;21000;-68
2021/10/31 05:50:47;;;;;;;16.60;9.60;;;10.20;80.60;;;;;;5109061;28;20212;-68
2021/10/31 05:53:14;;;;;;;14.97;9.57;;;10.20;79.80;;;;;;5101699;28;20219;-67
2021/10/31 05:55:41;;;;;;;16.23;9.00;;;10.20;79.80;;;;;;5114839;28;20203;-67
2021/10/31 05:58:07;;;;;;;13.80;9.40;;;10.20;80.60;;;;;;5114425;28;20216;-67
2021/10/31 06:00:34;;;;;;;13.80;9.53;;;10.20;79.90;;;;;;5112971;28;20238;-68
2021/10/31 06:03:01;;;;;;;16.63;10.10;;;10.20;79.80;;;;;;5127866;27;20209;-68
2021/10/31 06:05:30;;;;;;;14.40;9.30;;;10.20;79.90;;;;;;5114398;28;20196;-67
2021/10/31 06:07:57;;;;;;;14.37;9.87;;;10.20;80.70;;;;;;5115192;27;20703;-67
2021/10/31 06:10:24;;;;;;;15.30;10.13;;;10.20;80.00;;;;;;5129244;27;20706;-68
2021/10/31 06:12:51;;;;;;;13.67;9.60;;;10.30;80.10;;;;;;5107393;27;20287;-68
2021/10/31 06:15:20;;;;;;;14.57;10.20;;;10.30;80.10;;;;;;5115511;27;20641;-69
2021/10/31 06:17:47;;;;;;;15.30;10.00;;;10.30;80.10;;;;;;5102382;28;20315;-66
2021/10/31 06:20:16;;;;;;;15.90;10.17;;;10.30;80.10;;;;;;5115094;27;20247;-69
2021/10/31 06:22:44;;;;;;;15.63;10.10;;;10.30;80.10;;;;;;5124688;27;20214;-67
2021/10/31 06:25:12;;;;;;;14.17;9.73;;;10.40;80.10;;;;;;5116077;27;20294;-67
2021/10/31 06:27:39;;;;;;;14.43;9.07;;;10.40;79.90;;;;;;5109017;28;20268;-67
2021/10/31 06:30:08;;;;;;;17.43;10.50;;;10.50;79.90;;;;;;5108589;28;20231;-67
2021/10/31 06:32:35;;;;;;;14.30;10.07;;;10.60;79.70;;;;;;5113599;28;20271;-67
2021/10/31 06:35:02;;;;;;;13.17;10.03;;;10.60;79.40;;;;;;5108409;28;20657;-68
2021/10/31 06:37:29;;;;;;;14.57;9.30;;;10.70;79.50;;;;;;5107846;28;20327;-70
2021/10/31 06:39:57;;;;;;;14.00;9.50;;;10.70;79.10;;;;;;5113984;28;20575;-71
2021/10/31 06:42:28;;;;;;;15.93;10.13;;;10.90;79.00;;;;;;5118311;27;20211;-70
2021/10/31 06:44:55;;;;;;;15.07;10.83;;;11.00;78.80;;;;;;5106409;28;20212;-68
2021/10/31 06:47:23;;;;;;;15.80;9.40;;;11.10;78.40;;;;;;5114569;27;20277;-68
2021/10/31 06:49:49;;;;;;;17.60;10.77;;;11.20;78.30;;;;;;5116326;27;20367;-71
2021/10/31 06:52:17;;;;;;;14.47;9.40;;;11.30;77.80;;;;;;5114319;28;20216;-71
2021/10/31 06:54:44;;;;;;;14.47;10.13;;;11.40;77.50;;;;;;5111475;28;20222;-72
2021/10/31 06:57:12;;;;;;;17.97;9.87;;;11.50;77.10;;;;;;5112561;28;20688;-69
2021/10/31 06:59:39;;;;;;;17.67;10.07;;;11.50;76.40;;;;;;5104872;27;20232;-68
2021/10/31 07:02:06;;;;;;;13.97;9.80;;;11.70;76.40;;;;;;5116241;27;20204;-69
2021/10/31 07:04:34;;;;;;;12.60;9.03;;;11.70;75.80;;;;;;5105904;27;20217;-69
2021/10/31 07:07:00;;;;;;;13.53;9.17;;;11.80;75.60;;;;;;5116115;27;20212;-68
2021/10/31 07:09:28;;;;;;;14.77;9.70;;;12.00;75.70;;;;;;5113633;28;20208;-72
2021/10/31 07:11:55;;;;;;;15.13;9.90;;;12.30;75.60;;;;;;5129052;27;20204;-72
2021/10/31 07:14:23;;;;;;;14.17;9.70;;;12.50;74.00;;;;;;5125445;27;20215;-71
2021/10/31 07:16:50;;;;;;;20.53;10.30;;;12.60;73.20;;;;;;5118643;27;20271;-72
2021/10/31 07:19:18;;;;;;;12.13;9.90;;;12.70;73.00;;;;;;5124545;27;20656;-70
2021/10/31 07:21:45;;;;;;;14.93;9.57;;;12.70;72.40;;;;;;5120172;27;20203;-69
2021/10/31 07:24:12;;;;;;;15.10;9.83;;;12.70;72.40;;;;;;5115803;27;20214;-68
2021/10/31 07:26:39;;;;;;;13.83;9.80;;;12.80;72.50;;;;;;5111672;27;20214;-69
2021/10/31 07:29:08;;;;;;;15.13;9.67;;;12.90;72.50;;;;;;5113286;28;20227;-70
2021/10/31 07:31:40;;;;;;;14.50;10.07;;;13.00;72.10;;;;;;5112810;28;20208;-69
2021/10/31 07:34:10;;;;;;;17.17;9.37;;;13.00;72.00;;;;;;5120405;27;20708;-69
2021/10/31 07:36:37;;;;;;;16.17;9.70;;;13.20;72.10;;;;;;5112571;27;20208;-68
2021/10/31 07:39:04;;;;;;;13.43;9.67;;;13.40;71.20;;;;;;5109274;28;20222;-69
2021/10/31 07:41:31;;;;;;;14.93;10.00;;;13.60;71.10;;;;;;5111013;27;20737;-70
2021/10/31 07:43:58;;;;;;;13.97;9.23;;;13.70;69.90;;;;;;5098508;28;20212;-69
2021/10/31 07:46:25;;;;;;;15.23;10.00;;;13.80;69.70;;;;;;5114368;27;20298;-69
2021/10/31 07:48:53;;;;;;;15.20;9.43;;;13.90;69.20;;;;;;5119843;27;20487;-68
2021/10/31 07:51:20;;;;;;;11.30;8.63;;;13.90;68.50;;;;;;5118333;27;20211;-69
2021/10/31 07:53:47;;;;;;;15.30;9.53;;;13.90;68.40;;;;;;5110633;28;20243;-70
2021/10/31 07:56:16;;;;;;;14.40;9.60;;;13.90;68.40;;;;;;5118203;27;20303;-72
2021/10/31 07:58:44;;;;;;;14.17;9.43;;;14.00;68.60;;;;;;5111803;28;20262;-69
2021/10/31 08:01:12;;;;;;;12.23;9.00;;;14.10;68.80;;;;;;5115861;27;20597;-68
2021/10/31 08:03:38;;;;;;;14.47;9.43;;;14.30;68.60;;;;;;5110049;28;20208;-68
2021/10/31 08:06:07;;;;;;;12.40;8.83;;;14.50;68.20;;;;;;5111975;28;20204;-68
2021/10/31 08:08:34;;;;;;;12.60;8.70;;;14.70;67.40;;;;;;5102587;28;20283;-70
2021/10/31 08:11:02;;;;;;;16.13;10.43;;;14.80;66.70;;;;;;5112783;28;20695;-68
2021/10/31 08:13:28;;;;;;;13.80;9.33;;;14.90;66.40;;;;;;5107333;28;20656;-69
2021/10/31 08:15:56;;;;;;;11.13;8.70;;;14.90;66.00;;;;;;5107188;28;20204;-69
2021/10/31 08:18:23;;;;;;;18.50;11.20;;;15.00;65.70;;;;;;5108921;28;20454;-70
2021/10/31 08:20:50;;;;;;;11.93;9.13;;;15.10;65.10;;;;;;5111474;28;20214;-69
2021/10/31 08:23:18;;;;;;;14.23;9.57;;;15.30;64.90;;;;;;5111466;28;20227;-70
2021/10/31 08:25:46;;;;;;;13.57;9.60;;;15.50;64.50;;;;;;5111210;28;20253;-72
2021/10/31 08:28:15;;;;;;;11.40;9.07;;;15.60;64.10;;;;;;5122510;28;20314;-71
2021/10/31 08:30:45;;;;;;;13.77;9.90;;;15.80;63.90;;;;;;5108977;28;20261;-71
2021/10/31 08:33:19;;;;;;;12.50;8.87;;;16.00;63.30;;;;;;5111127;28;20565;-66
2021/10/31 08:35:46;;;;;;;11.93;8.87;;;16.10;63.10;;;;;;5106154;28;20649;-68
2021/10/31 08:38:13;;;;;;;12.83;9.00;;;16.30;63.90;;;;;;5111842;28;20233;-70
2021/10/31 08:40:43;;;;;;;11.00;8.77;;;16.60;63.40;;;;;;5111015;28;20214;-68
2021/10/31 08:43:11;;;;;;;12.50;8.90;;;17.70;67.70;;;;;;5106257;28;20201;-69
2021/10/31 08:45:41;;;;;;;10.00;8.80;;;20.10;61.20;;;;;;5109296;28;20226;-69
2021/10/31 08:48:08;;;;;;;11.63;9.02;;;23.00;55.00;;;;;;5109549;28;20249;-69
2021/10/31 08:50:36;;;;;;;11.73;9.15;;;25.90;48.00;;;;;;5110193;28;20222;-67
2021/10/31 08:53:04;;;;;;;10.85;8.18;;;28.20;43.00;;;;;;5114374;28;20203;-68
2021/10/31 08:55:31;;;;;;;10.63;9.07;;;30.10;39.30;;;;;;5118659;28;20207;-69
2021/10/31 08:57:59;;;;;;;10.25;8.85;;;31.60;36.50;;;;;;5107900;28;20228;-67
2021/10/31 09:00:27;;;;;;;11.48;9.23;;;33.00;34.60;;;;;;5103112;28;20236;-69
2021/10/31 09:02:53;;;;;;;14.50;9.70;;;34.10;32.60;;;;;;5109836;28;20204;-67
2021/10/31 09:05:20;;;;;;;11.38;8.35;;;35.00;31.00;;;;;;5110752;28;20524;-67
2021/10/31 09:07:47;;;;;;;13.05;9.38;;;35.70;30.00;;;;;;5110793;28;20207;-70
2021/10/31 09:10:14;;;;;;;11.50;8.90;;;36.50;29.30;;;;;;5114876;28;20208;-71
2021/10/31 09:12:41;;;;;;;11.00;9.20;;;37.00;28.60;;;;;;5118359;28;20565;-72
2021/10/31 09:15:10;;;;;;;12.52;9.05;;;37.40;27.90;;;;;;5118533;28;20295;-71
2021/10/31 09:17:37;;;;;;;9.23;8.23;;;37.80;27.60;;;;;;5114543;28;20299;-71
2021/10/31 09:20:04;;;;;;;13.77;10.27;;;37.90;27.10;;;;;;5111427;28;20756;-71
2021/10/31 09:22:32;;;;;;;11.93;8.88;;;37.80;27.40;;;;;;5116759;28;20696;-70
2021/10/31 09:24:59;;;;;;;9.70;8.68;;;38.00;26.90;;;;;;5116989;28;20200;-71
2021/10/31 09:27:26;;;;;;;9.98;8.10;;;38.20;26.60;;;;;;5115708;28;20298;-72
2021/10/31 09:29:52;;;;;;;13.90;8.40;;;38.70;26.50;;;;;;5091378;28;20510;-70
2021/10/31 09:32:34;;;;;;;9.35;8.35;;;39.20;26.30;;;;;;5100581;28;20204;-70
2021/10/31 09:35:02;;;;;;;9.38;7.78;;;39.80;25.80;;;;;;5112719;28;20649;-69
2021/10/31 09:37:29;;;;;;;11.63;8.73;;;40.30;25.40;;;;;;5104252;28;20265;-70
2021/10/31 09:39:59;;;;;;;10.95;8.60;;;40.60;25.20;;;;;;5113368;28;20220;-68
2021/10/31 09:42:26;;;;;;;14.00;9.48;;;40.70;25.00;;;;;;5114033;27;20201;-68
2021/10/31 09:44:53;;;;;;;12.40;8.45;;;40.60;24.80;;;;;;5108315;28;20212;-69
2021/10/31 09:47:21;;;;;;;8.57;7.72;;;40.80;24.80;;;;;;5117948;27;20764;-68
2021/10/31 09:49:50;;;;;;;10.70;8.02;;;41.20;24.60;;;;;;5112094;27;20204;-68
2021/10/31 09:52:17;;;;;;;9.45;8.38;;;42.10;24.30;;;;;;5120492;27;20235;-68
2021/10/31 09:54:44;;;;;;;9.82;8.68;;;42.80;23.90;;;;;;5132075;27;20195;-68
2021/10/31 09:57:11;;;;;;;10.32;8.30;;;43.40;23.70;;;;;;5117194;27;20225;-68
2021/10/31 09:59:41;;;;;;;9.98;8.50;;;43.90;23.20;;;;;;5128204;27;20321;-68
2021/10/31 10:02:15;;;;;;;10.75;8.20;;;44.00;22.90;;;;;;5129113;27;20255;-69
2021/10/31 10:04:50;;;;;;;10.65;8.38;;;43.90;23.00;;;;;;5117975;27;20199;-69
2021/10/31 10:07:20;;;;;;;9.13;8.15;;;44.30;22.70;;;;;;5105940;27;20607;-71
2021/10/31 10:09:51;;;;;;;9.32;8.27;;;44.80;22.60;;;;;;5120878;27;20289;-71
2021/10/31 10:12:19;;;;;;;12.38;8.75;;;45.10;22.30;;;;;;5132214;27;20198;-70
2021/10/31 10:14:51;;;;;;;8.98;7.80;;;45.80;22.10;;;;;;5127594;27;20319;-69
2021/10/31 10:17:18;;;;;;;8.55;7.50;;;46.10;21.80;;;;;;5122962;27;20213;-70
2021/10/31 10:19:51;;;;;;;8.52;7.55;;;46.40;21.60;;;;;;5122475;27;20254;-69
2021/10/31 10:22:20;;;;;;;9.30;6.80;;;46.70;21.30;;;;;;5127414;27;20647;-69
2021/10/31 10:24:52;;;;;;;8.77;7.88;;;46.50;21.20;;;;;;5108193;27;20215;-69
2021/10/31 10:27:24;;;;;;;8.63;7.70;;;46.50;21.10;;;;;;5109120;27;20277;-70
2021/10/31 10:29:51;;;;;;;9.25;6.88;;;46.60;21.00;;;;;;5114590;27;20199;-70
2021/10/31 10:32:20;;;;;;;8.55;7.60;;;46.80;21.00;;;;;;5116774;27;20207;-70
2021/10/31 10:34:53;;;;;;;10.35;7.95;;;46.40;21.00;;;;;;5114003;28;20207;-70
2021/10/31 10:37:22;;;;;;;9.15;8.07;;;46.40;21.00;;;;;;5113808;28;20199;-69
2021/10/31 10:39:53;;;;;;;10.10;6.90;;;46.50;20.90;;;;;;5112447;27;20321;-69
2021/10/31 10:42:23;;;;;;;10.02;7.97;;;46.70;21.10;;;;;;5106578;27;20209;-68
2021/10/31 10:44:50;;;;;;;8.73;7.00;;;47.20;20.80;;;;;;5133664;27;20198;-69
2021/10/31 10:47:20;;;;;;;9.25;6.82;;;47.90;20.70;;;;;;5116450;27;20217;-70
2021/10/31 10:49:48;;;;;;;7.93;7.13;;;48.70;20.30;;;;;;5110168;27;20207;-70
2021/10/31 10:52:24;;;;;;;9.18;7.20;;;48.80;20.10;;;;;;5112579;28;20245;-70
2021/10/31 10:54:57;;;;;;;8.32;6.88;;;48.50;20.00;;;;;;5115693;27;20232;-70
2021/10/31 10:57:26;;;;;;;8.00;7.18;;;48.60;20.10;;;;;;5108193;28;20262;-71
2021/10/31 10:59:55;;;;;;;9.00;7.28;;;48.80;20.10;;;;;;5111438;27;20281;-72
2021/10/31 11:02:23;;;;;;;7.93;6.30;;;49.00;19.60;;;;;;5121599;27;20295;-71
2021/10/31 11:04:56;;;;;;;7.65;6.85;;;48.70;19.40;;;;;;5114577;27;20227;-71
2021/10/31 11:07:37;;;;;;;7.43;6.50;;;48.70;19.90;;;;;;5122722;27;20209;-70
2021/10/31 11:10:10;;;;;;;7.93;6.95;;;48.50;19.80;;;;;;5123263;27;20187;-70
2021/10/31 11:12:39;;;;;;;8.13;6.90;;;48.40;19.80;;;;;;5126301;27;20565;-70
2021/10/31 11:15:09;;;;;;;9.73;7.13;;;48.60;19.80;;;;;;5117427;27;20618;-68
2021/10/31 11:17:38;;;;;;;8.75;7.78;;;48.70;19.50;;;;;;5113196;28;20213;-69
2021/10/31 11:20:07;;;;;;;10.60;7.00;;;48.80;19.70;;;;;;5111817;28;20253;-71
2021/10/31 11:22:37;;;;;;;9.27;6.88;;;49.20;19.70;;;;;;5112010;28;20203;-69
2021/10/31 11:25:06;;;;;;;8.02;7.22;;;49.40;20.30;;;;;;5117764;27;20209;-70
2021/10/31 11:27:33;;;;;;;7.68;6.88;;;49.50;19.50;;;;;;5106695;27;20567;-70
2021/10/31 11:30:01;;;;;;;8.50;7.25;;;49.20;19.60;;;;;;5117491;27;20209;-70
2021/10/31 11:32:29;;;;;;;7.50;6.65;;;49.20;19.70;;;;;;5119726;27;20199;-69
2021/10/31 11:34:58;;;;;;;10.63;7.85;;;49.00;19.60;;;;;;5114400;27;20207;-69
2021/10/31 11:37:28;;;;;;;10.70;7.82;;;48.90;19.50;;;;;;5119501;27;20773;-69
2021/10/31 11:40:02;;;;;;;10.10;6.50;;;49.20;19.70;;;;;;5131209;27;20221;-70
2021/10/31 11:42:36;;;;;;;11.18;7.80;;;47.40;19.10;;;;;;5118947;27;20205;-69
2021/10/31 11:45:08;;;;;;;7.78;7.03;;;44.20;20.40;;;;;;5109486;27;20196;-70
2021/10/31 11:47:37;;;;;;;10.80;8.35;;;41.00;21.70;;;;;;5111880;27;20210;-70
2021/10/31 11:50:15;;;;;;;8.00;7.20;;;37.80;23.40;;;;;;5109267;27;20208;-70
2021/10/31 11:53:00;;;;;;;9.23;7.60;;;35.10;25.20;;;;;;5103523;28;20214;-68
2021/10/31 11:58:46;;;;;;;9.93;7.20;;;30.60;28.50;;;;;;5106368;27;20558;-69
2021/10/31 12:01:17;;;;;;;12.48;8.20;;;28.60;30.60;;;;;;5107054;28;20192;-70
2021/10/31 12:03:46;;;;;;;9.98;7.72;;;27.20;32.20;;;;;;5118787;27;20297;-71
2021/10/31 12:06:46;;;;;;;10.95;8.02;;;26.00;33.70;;;;;;5114325;27;20203;-71
2021/10/31 12:09:33;;;;;;;11.93;7.70;;;25.00;35.50;;;;;;5120328;27;20195;-70
2021/10/31 12:12:17;;;;;;;13.95;8.23;;;24.00;36.90;;;;;;5104045;28;20207;-70
2021/10/31 12:14:46;;;;;;;11.48;7.50;;;23.30;38.20;;;;;;5113575;27;20368;-70
2021/10/31 12:17:13;;;;;;;9.23;7.32;;;22.60;39.00;;;;;;5119740;27;20214;-70
2021/10/31 12:19:43;;;;;;;13.45;10.15;;;22.10;39.90;;;;;;5122442;27;20229;-69
2021/10/31 12:22:12;;;;;;;9.65;7.13;;;21.60;40.70;;;;;;5126812;27;20286;-70
2021/10/31 12:24:41;;;;;;;11.07;7.90;;;21.20;41.50;;;;;;5126305;27;20270;-70
2021/10/31 12:27:14;;;;;;;9.60;6.70;;;20.80;42.10;;;;;;5125007;28;20207;-72
2021/10/31 12:30:07;;;;;;;9.98;6.97;;;20.60;42.50;;;;;;5121944;28;20633;-70
2021/10/31 12:32:41;;;;;;;8.98;7.53;;;20.30;43.10;;;;;;5124448;28;20369;-71
2021/10/31 12:35:29;;;;;;;10.75;6.93;;;20.10;43.60;;;;;;5125021;28;20333;-71
2021/10/31 12:38:33;;;;;;;12.73;8.65;;;19.90;44.20;;;;;;5126523;28;20596;-71
2021/10/31 12:41:33;;;;;;;8.15;6.65;;;19.60;44.80;;;;;;5126995;28;20541;-70
2021/10/31 12:44:14;;;;;;;8.27;6.32;;;19.50;45.10;;;;;;5113599;28;20618;-70
2021/10/31 12:46:44;;;;;;;8.55;6.03;;;19.30;45.30;;;;;;5125180;28;20205;-69
2021/10/31 12:49:22;;;;;;;12.55;6.68;;;19.20;45.50;;;;;;5119677;28;20203;-71